Time;durP1;ratioP1;P1;durP2;ratioP2;P2;SDS_P1;SDS_P2;PMS_P1;PMS_P2;Temp;Humidity;BMP_temperature;BMP_pressure;BME280_temperature;BME280_humidity;BME280_pressure;Samples;Min_cycle;Max_cycle;Signal;HPM_P1;HPM_P2
2022/04/10 00:02:13;;;;;;;4.33;1.90;;;;;;;2.10;100.00;100221.81;5071686;28;20522;-71
2022/04/10 00:04:38;;;;;;;0.87;0.87;;;;;;;2.08;100.00;100219.38;5071771;28;20171;-72
2022/04/10 00:07:03;;;;;;;1.30;1.20;;;;;;;2.09;100.00;100225.59;5071461;28;20175;-71
2022/04/10 00:09:29;;;;;;;6.10;1.00;;;;;;;2.09;100.00;100231.78;5071495;28;20204;-71
2022/04/10 00:11:54;;;;;;;1.53;1.33;;;;;;;2.08;100.00;100229.34;5072129;28;20175;-71
2022/04/10 00:14:19;;;;;;;2.70;1.10;;;;;;;2.07;100.00;100225.03;5072041;28;20216;-72
2022/04/10 00:16:45;;;;;;;1.60;1.50;;;;;;;2.07;100.00;100220.47;5071461;28;20488;-71
2022/04/10 00:19:10;;;;;;;1.77;1.67;;;;;;;2.12;100.00;100225.06;5071317;28;20174;-71
2022/04/10 00:21:35;;;;;;;0.90;0.77;;;;;;;2.17;100.00;100227.78;5071320;28;20178;-71
2022/04/10 00:24:01;;;;;;;0.60;0.60;;;;;;;2.19;100.00;100225.66;5070938;28;20732;-72
2022/04/10 00:26:26;;;;;;;3.90;1.47;;;;;;;2.21;100.00;100228.88;5071236;28;20183;-71
2022/04/10 00:28:53;;;;;;;6.30;1.40;;;;;;;2.24;100.00;100228.38;5071011;28;20200;-71
2022/04/10 00:31:18;;;;;;;1.00;0.80;;;;;;;2.28;100.00;100226.75;5071214;28;20172;-71
2022/04/10 00:33:44;;;;;;;1.90;0.33;;;;;;;2.27;100.00;100238.63;5071179;28;20171;-71
2022/04/10 00:36:09;;;;;;;1.13;0.93;;;;;;;2.27;100.00;100233.22;5071033;28;20171;-72
2022/04/10 00:38:35;;;;;;;2.70;0.87;;;;;;;2.26;100.00;100230.78;5070113;28;20178;-71
2022/04/10 00:41:00;;;;;;;0.40;0.40;;;;;;;2.27;100.00;100233.22;5070697;28;20166;-72
2022/04/10 00:43:30;;;;;;;0.53;0.50;;;;;;;2.28;100.00;100239.44;5070606;28;20175;-71
2022/04/10 00:45:57;;;;;;;0.67;0.67;;;;;;;2.27;100.00;100229.72;5070679;28;20228;-71
2022/04/10 00:48:23;;;;;;;0.53;0.53;;;;;;;2.25;100.00;100221.09;5070171;28;20265;-71
2022/04/10 00:53:33;;;;;;;0.50;0.50;;;;;;;2.24;100.00;100239.16;5070471;28;20181;-71
2022/04/10 00:55:58;;;;;;;2.23;1.30;;;;;;;2.22;100.00;100235.09;5070363;28;20413;-71
2022/04/10 00:58:24;;;;;;;5.50;1.07;;;;;;;2.19;100.00;100247.22;5070134;28;20174;-71
2022/04/10 01:00:49;;;;;;;1.13;1.13;;;;;;;2.15;100.00;100238.00;5070251;28;20184;-72
2022/04/10 01:03:15;;;;;;;3.30;0.50;;;;;;;2.12;100.00;100238.53;5070410;28;20220;-70
2022/04/10 01:05:45;;;;;;;1.70;1.60;;;;;;;2.15;100.00;100235.31;5070196;28;20213;-71
2022/04/10 01:08:10;;;;;;;1.30;0.60;;;;;;;2.16;100.00;100250.41;5070057;28;20286;-72
2022/04/10 01:10:35;;;;;;;9.13;1.43;;;;;;;2.20;100.00;100246.13;5070574;28;20269;-71
2022/04/10 01:13:01;;;;;;;0.40;0.40;;;;;;;2.21;100.00;100241.56;5070310;28;20337;-71
2022/04/10 01:15:26;;;;;;;0.73;0.73;;;;;;;2.23;100.00;100251.00;5070189;28;20178;-72
2022/04/10 01:17:52;;;;;;;2.40;0.47;;;;;;;2.23;100.00;100250.19;5069951;28;20178;-71
2022/04/10 01:20:19;;;;;;;2.20;1.23;;;;;;;2.24;100.00;100249.91;5070129;28;20683;-71
2022/04/10 01:22:46;;;;;;;0.20;0.20;;;;;;;2.24;100.00;100260.69;5068946;28;20171;-72
2022/04/10 01:25:11;;;;;;;1.13;1.03;;;;;;;2.24;100.00;100266.09;5069616;28;20171;-72
2022/04/10 01:27:38;;;;;;;0.97;0.93;;;;;;;2.23;100.00;100261.78;5068361;28;20435;-71
2022/04/10 01:30:06;;;;;;;8.33;0.73;;;;;;;2.23;100.00;100266.34;5070384;28;20245;-71
2022/04/10 01:32:31;;;;;;;4.23;0.73;;;;;;;2.23;100.00;100275.25;5070037;28;20420;-71
2022/04/10 01:34:59;;;;;;;1.07;1.07;;;;;;;2.24;100.00;100266.09;5069940;28;20538;-72
2022/04/10 01:37:25;;;;;;;0.43;0.43;;;;;;;2.27;100.00;100262.88;5069989;28;20506;-71
2022/04/10 01:39:50;;;;;;;14.50;1.33;;;;;;;2.29;100.00;100262.59;5069926;28;20689;-71
2022/04/10 01:42:15;;;;;;;1.60;1.47;;;;;;;2.30;100.00;100277.69;5073971;28;20300;-71
2022/04/10 01:44:42;;;;;;;0.77;0.67;;;;;;;2.30;100.00;100283.91;5073764;28;20265;-71
2022/04/10 01:47:08;;;;;;;4.17;0.80;;;;;;;2.31;100.00;100284.72;5073790;28;20178;-71
2022/04/10 01:49:33;;;;;;;4.00;1.00;;;;;;;2.29;100.00;100274.19;5073763;28;20206;-71
2022/04/10 01:51:59;;;;;;;1.60;1.50;;;;;;;2.28;100.00;100277.97;5073820;28;20181;-72
2022/04/10 01:54:24;;;;;;;7.03;1.13;;;;;;;2.26;100.00;100274.72;5073711;28;20167;-71
2022/04/10 01:56:49;;;;;;;0.30;0.30;;;;;;;2.25;100.00;100280.38;5073570;28;20181;-71
2022/04/10 01:59:15;;;;;;;11.07;0.97;;;;;;;2.25;100.00;100285.78;5073480;28;20179;-71
2022/04/10 02:01:40;;;;;;;1.10;1.03;;;;;;;2.24;100.00;100289.53;5073659;28;20236;-71
2022/04/10 02:04:06;;;;;;;2.70;2.20;;;;;;;2.23;100.00;100286.03;5073884;28;20567;-71
2022/04/10 02:06:34;;;;;;;1.67;1.13;;;;;;;2.22;100.00;100280.91;5073849;28;20174;-72
2022/04/10 02:08:59;;;;;;;2.47;1.23;;;;;;;2.18;100.00;100285.19;5073681;28;20210;-71
2022/04/10 02:11:25;;;;;;;2.13;1.30;;;;;;;2.16;100.00;100271.16;5073884;28;20427;-71
2022/04/10 02:13:51;;;;;;;14.80;1.23;;;;;;;2.13;100.00;100275.19;5073732;28;20531;-71
2022/04/10 02:16:18;;;;;;;0.77;0.77;;;;;;;2.12;100.00;100276.25;5073582;28;20179;-71
2022/04/10 02:18:44;;;;;;;0.93;0.70;;;;;;;2.12;100.00;100268.16;5073353;28;20194;-71
2022/04/10 02:21:10;;;;;;;2.17;1.30;;;;;;;2.15;100.00;100272.22;5073576;28;20966;-72
2022/04/10 02:23:36;;;;;;;1.30;1.20;;;;;;;2.16;100.00;100263.88;5073545;28;20182;-71
2022/04/10 02:26:02;;;;;;;1.40;1.30;;;;;;;2.18;100.00;100266.34;5073155;28;20420;-71
2022/04/10 02:28:28;;;;;;;0.27;0.27;;;;;;;2.20;100.00;100286.56;5073223;28;20487;-72
2022/04/10 02:30:53;;;;;;;4.47;1.30;;;;;;;2.21;100.00;100280.09;5073425;28;20209;-71
2022/04/10 02:33:19;;;;;;;0.60;0.60;;;;;;;2.21;100.00;100281.97;5073435;28;20173;-73
2022/04/10 02:35:45;;;;;;;0.77;0.77;;;;;;;2.21;100.00;100282.78;5073458;28;20167;-71
2022/04/10 02:38:10;;;;;;;6.63;1.87;;;;;;;2.23;100.00;100277.13;5073208;28;20205;-71
2022/04/10 02:40:36;;;;;;;2.13;1.57;;;;;;;2.25;100.00;100280.38;5073203;28;20284;-71
2022/04/10 02:43:02;;;;;;;2.27;0.70;;;;;;;2.28;100.00;100287.94;5073052;28;20702;-72
2022/04/10 02:45:27;;;;;;;2.23;1.37;;;;;;;2.26;100.00;100279.31;5073291;28;20528;-71
2022/04/10 02:47:52;;;;;;;3.80;1.70;;;;;;;2.24;100.00;100289.53;5073179;28;20170;-71
2022/04/10 02:50:18;;;;;;;3.03;2.63;;;;;;;2.20;100.00;100291.94;5073057;28;20171;-71
2022/04/10 02:52:43;;;;;;;7.17;1.83;;;;;;;2.14;100.00;100294.84;5071835;28;20196;-71
2022/04/10 02:55:09;;;;;;;7.07;1.40;;;;;;;2.12;100.00;100292.41;5073062;28;20622;-71
2022/04/10 02:57:35;;;;;;;0.80;0.80;;;;;;;2.14;100.00;100284.06;5072880;28;20170;-71
2022/04/10 03:00:01;;;;;;;14.87;1.00;;;;;;;2.12;100.00;100288.91;5072971;28;20261;-71
2022/04/10 03:02:26;;;;;;;12.30;3.00;;;;;;;2.12;100.00;100284.34;5072962;28;20508;-71
2022/04/10 03:04:52;;;;;;;16.23;3.77;;;;;;;2.13;100.00;100291.34;5072717;28;20171;-72
2022/04/10 03:07:17;;;;;;;2.83;0.90;;;;;;;2.12;100.00;100294.31;5072469;28;20186;-72
2022/04/10 03:09:42;;;;;;;8.63;1.60;;;;;;;2.10;100.00;100289.19;5072614;28;20202;-72
2022/04/10 03:12:08;;;;;;;5.90;2.57;;;;;;;2.08;100.00;100288.63;5072695;28;20211;-71
2022/04/10 03:14:34;;;;;;;1.80;1.70;;;;;;;2.02;100.00;100295.84;5072668;28;20178;-72
2022/04/10 03:17:00;;;;;;;7.57;2.43;;;;;;;1.98;100.00;100296.63;5072526;28;20387;-71
2022/04/10 03:19:25;;;;;;;5.43;2.00;;;;;;;1.98;100.00;100296.63;5072920;28;20618;-71
2022/04/10 03:21:51;;;;;;;1.90;1.80;;;;;;;1.99;100.00;100306.34;5072543;28;20665;-71
2022/04/10 03:24:16;;;;;;;4.53;2.03;;;;;;;2.01;100.00;100309.56;5072570;28;20189;-71
2022/04/10 03:26:41;;;;;;;6.40;1.43;;;;;;;2.01;100.00;100293.41;5072500;28;20170;-71
2022/04/10 03:29:07;;;;;;;4.77;1.37;;;;;;;2.00;100.00;100299.88;5072559;28;20229;-71
2022/04/10 03:31:32;;;;;;;1.00;1.00;;;;;;;2.00;100.00;100302.56;5072285;28;20305;-71
2022/04/10 03:33:57;;;;;;;3.67;1.00;;;;;;;1.98;100.00;100302.03;5072358;28;20182;-72
2022/04/10 03:36:23;;;;;;;3.57;2.67;;;;;;;2.00;100.00;100302.56;5072325;28;20229;-72
2022/04/10 03:38:48;;;;;;;0.93;0.53;;;;;;;2.00;100.00;100299.88;5072402;28;20179;-71
2022/04/10 03:41:13;;;;;;;3.23;2.13;;;;;;;2.00;100.00;100303.38;5072268;28;20171;-71
2022/04/10 03:43:39;;;;;;;5.97;2.67;;;;;;;2.00;100.00;100303.38;5072180;28;20567;-71
2022/04/10 03:46:05;;;;;;;0.60;0.60;;;;;;;2.00;100.00;100311.47;5072155;28;20677;-71
2022/04/10 03:48:30;;;;;;;0.93;0.83;;;;;;;1.93;100.00;100310.06;5071729;28;20674;-72
2022/04/10 03:50:55;;;;;;;1.70;1.60;;;;;;;1.88;100.00;100307.31;5069440;28;20216;-71
2022/04/10 03:53:21;;;;;;;10.80;1.60;;;;;;;1.83;100.00;100318.88;5071847;28;20227;-71
2022/04/10 03:55:47;;;;;;;1.03;1.03;;;;;;;1.81;100.00;100318.31;5071950;28;20182;-71
2022/04/10 03:58:13;;;;;;;14.57;1.70;;;;;;;1.77;100.00;100318.03;5072164;28;20256;-71
2022/04/10 04:00:39;;;;;;;1.27;0.73;;;;;;;1.76;100.00;100323.66;5072271;28;20645;-71
2022/04/10 04:03:05;;;;;;;1.40;1.30;;;;;;;1.75;100.00;100317.47;5071887;28;20264;-71
2022/04/10 04:05:30;;;;;;;2.70;0.30;;;;;;;1.76;100.00;100324.47;5071987;28;20316;-71
2022/04/10 04:07:56;;;;;;;1.57;1.47;;;;;;;1.73;100.00;100319.59;5071908;28;20535;-72
2022/04/10 04:10:22;;;;;;;1.07;0.80;;;;;;;1.74;100.00;100334.69;5072111;28;20181;-71
2022/04/10 04:12:47;;;;;;;4.07;1.47;;;;;;;1.73;100.00;100334.94;5072046;28;20179;-71
2022/04/10 04:15:12;;;;;;;2.20;2.00;;;;;;;1.77;100.00;100319.91;5071941;28;20181;-71
2022/04/10 04:17:38;;;;;;;6.87;2.73;;;;;;;1.79;100.00;100328.53;5071480;28;20181;-71
2022/04/10 04:20:08;;;;;;;1.63;1.30;;;;;;;1.85;100.00;100342.84;5071603;28;20257;-71
2022/04/10 04:22:33;;;;;;;0.60;0.60;;;;;;;1.87;100.00;100341.53;5071870;28;20174;-72
2022/04/10 04:24:59;;;;;;;28.77;2.83;;;;;;;1.92;100.00;100359.63;5071426;28;20239;-71
2022/04/10 04:27:24;;;;;;;3.60;1.67;;;;;;;1.93;100.00;100364.75;5071516;28;20179;-71
2022/04/10 04:29:50;;;;;;;1.73;1.63;;;;;;;1.93;100.00;100369.34;5071573;28;20210;-71
2022/04/10 04:32:15;;;;;;;7.80;2.70;;;;;;;1.95;100.00;100365.31;5071669;28;20197;-72
2022/04/10 04:34:40;;;;;;;5.63;1.10;;;;;;;1.97;100.00;100373.13;5071495;28;20174;-71
2022/04/10 04:37:07;;;;;;;0.83;0.83;;;;;;;1.94;100.00;100374.47;5071767;28;20198;-72
2022/04/10 04:39:33;;;;;;;6.70;1.63;;;;;;;1.91;100.00;100376.88;5071454;28;20187;-71
2022/04/10 04:41:58;;;;;;;1.70;1.60;;;;;;;1.86;100.00;100374.09;5071581;28;20799;-71
2022/04/10 04:44:23;;;;;;;6.70;2.37;;;;;;;1.80;100.00;100384.03;5071550;28;20181;-71
2022/04/10 04:46:49;;;;;;;14.87;1.27;;;;;;;1.79;100.00;100380.53;5071285;28;20613;-71
2022/04/10 04:49:14;;;;;;;3.47;0.93;;;;;;;1.82;100.00;100386.47;5071530;28;20206;-71
2022/04/10 04:51:39;;;;;;;1.73;1.00;;;;;;;1.88;100.00;100393.50;5071326;28;20224;-71
2022/04/10 04:54:08;;;;;;;2.13;1.17;;;;;;;1.91;100.00;100393.03;5071355;28;20182;-71
2022/04/10 04:56:34;;;;;;;5.50;2.40;;;;;;;1.92;100.00;100389.25;5071421;28;20770;-71
2022/04/10 04:58:59;;;;;;;2.93;0.90;;;;;;;1.93;100.00;100404.34;5071085;28;20448;-71
2022/04/10 05:01:24;;;;;;;2.27;2.07;;;;;;;1.90;100.00;100397.59;5071070;28;20221;-71
2022/04/10 05:03:50;;;;;;;4.40;2.27;;;;;;;1.89;100.00;100401.38;5071227;28;20174;-71
2022/04/10 05:06:15;;;;;;;3.40;1.33;;;;;;;1.89;100.00;100411.34;5071100;28;20223;-71
2022/04/10 05:08:41;;;;;;;3.03;2.57;;;;;;;1.87;100.00;100418.81;5070836;28;20198;-71
2022/04/10 05:11:10;;;;;;;10.03;1.87;;;;;;;1.84;100.00;100416.66;5071129;28;20174;-71
2022/04/10 05:13:36;;;;;;;4.53;2.83;;;;;;;1.78;100.00;100422.00;5071027;28;20174;-72
2022/04/10 05:16:01;;;;;;;1.50;1.10;;;;;;;1.82;100.00;100429.56;5070357;28;20828;-71
2022/04/10 05:18:27;;;;;;;1.17;0.87;;;;;;;1.80;100.00;100435.19;5071061;28;20186;-72
2022/04/10 05:20:52;;;;;;;1.37;1.27;;;;;;;1.79;100.00;100434.38;5070967;28;20181;-71
2022/04/10 05:23:19;;;;;;;15.90;3.10;;;;;;;1.79;100.00;100425.50;5070941;28;20213;-72
2022/04/10 05:25:44;;;;;;;2.77;1.23;;;;;;;1.81;100.00;100427.94;5070718;28;20189;-71
2022/04/10 05:28:10;;;;;;;3.03;1.27;;;;;;;1.84;100.00;100435.50;5071082;28;20944;-72
2022/04/10 05:30:35;;;;;;;0.63;0.40;;;;;;;1.86;100.00;100436.06;5070693;28;20598;-72
2022/04/10 05:33:00;;;;;;;2.03;1.17;;;;;;;1.87;100.00;100440.38;5070429;28;20178;-71
2022/04/10 05:35:26;;;;;;;0.97;0.97;;;;;;;1.91;100.00;100452.28;5070706;28;20540;-71
2022/04/10 05:37:51;;;;;;;1.77;1.67;;;;;;;1.95;100.00;100450.72;5070672;28;20175;-71
2022/04/10 05:40:17;;;;;;;3.57;0.80;;;;;;;1.97;100.00;100460.16;5070575;28;20523;-72
2022/04/10 05:42:46;;;;;;;2.10;1.13;;;;;;;1.99;100.00;100457.19;5070656;28;20273;-71
2022/04/10 05:45:12;;;;;;;23.73;2.00;;;;;;;2.01;100.00;100458.56;5070814;28;20185;-71
2022/04/10 05:47:39;;;;;;;6.93;2.83;;;;;;;2.06;100.00;100463.22;5070712;28;20900;-71
2022/04/10 05:50:07;;;;;;;2.90;0.90;;;;;;;2.09;100.00;100458.13;5070656;28;20217;-72
2022/04/10 05:52:40;;;;;;;12.27;2.37;;;;;;;2.15;100.00;100466.25;5070958;28;20769;-75
2022/04/10 05:55:07;;;;;;;1.40;1.17;;;;;;;2.19;100.00;100472.78;5070612;28;20405;-72
2022/04/10 05:57:32;;;;;;;0.60;0.60;;;;;;;2.20;100.00;100475.22;5070367;28;20525;-72
2022/04/10 05:59:57;;;;;;;4.13;1.90;;;;;;;2.24;100.00;100476.31;5070511;28;20520;-72
2022/04/10 06:02:23;;;;;;;5.20;1.90;;;;;;;2.22;100.00;100486.56;5070481;28;20426;-75
2022/04/10 06:04:48;;;;;;;0.60;0.60;;;;;;;2.20;100.00;100486.00;5070533;28;20642;-73
2022/04/10 06:07:13;;;;;;;2.33;2.10;;;;;;;2.20;100.00;100488.69;5070296;28;20181;-72
2022/04/10 06:09:38;;;;;;;0.77;0.73;;;;;;;2.20;100.00;100494.09;5070237;28;20703;-75
2022/04/10 06:12:04;;;;;;;3.63;1.23;;;;;;;2.27;100.00;100502.75;5070529;28;20212;-71
2022/04/10 06:14:30;;;;;;;0.27;0.27;;;;;;;2.37;100.00;100500.16;5070134;28;20180;-73
2022/04/10 06:16:55;;;;;;;6.20;1.77;;;;;;;2.49;100.00;100500.00;5070130;28;20179;-75
2022/04/10 06:19:20;;;;;;;8.67;1.80;;;;;;;2.59;100.00;100500.06;5070122;28;20185;-73
2022/04/10 06:21:45;;;;;;;2.47;1.00;;;;;;;2.74;100.00;100503.97;5070517;28;20183;-72
2022/04/10 06:24:11;;;;;;;1.87;1.47;;;;;;;2.90;100.00;100497.63;5071581;28;20167;-74
2022/04/10 06:26:36;;;;;;;1.80;1.33;;;;;;;2.98;100.00;100508.75;5074295;28;20190;-71
2022/04/10 06:29:02;;;;;;;2.40;1.93;;;;;;;3.13;100.00;100499.13;5074213;28;20276;-71
2022/04/10 06:31:28;;;;;;;1.57;1.47;;;;;;;3.15;100.00;100505.06;5070780;28;20186;-72
2022/04/10 06:33:56;;;;;;;1.03;1.03;;;;;;;3.10;100.00;100502.34;5070469;28;20294;-75
2022/04/10 06:36:22;;;;;;;3.70;1.73;;;;;;;3.07;100.00;100508.28;5073832;28;20174;-71
2022/04/10 06:38:49;;;;;;;1.53;1.43;;;;;;;2.99;100.00;100504.16;5073662;28;20179;-75
2022/04/10 06:41:14;;;;;;;10.07;2.93;;;;;;;2.92;100.00;100504.41;5073983;28;20177;-72
2022/04/10 06:43:39;;;;;;;1.20;0.73;;;;;;;2.87;100.00;100517.84;5073654;28;20650;-73
2022/04/10 06:46:06;;;;;;;0.90;0.87;;;;;;;2.85;100.00;100514.59;5073449;28;20177;-73
2022/04/10 06:48:32;;;;;;;19.73;1.53;;;;;;;2.88;100.00;100522.16;5073472;28;20259;-71
2022/04/10 06:50:57;;;;;;;4.50;2.13;;;;;;;2.86;100.00;100518.09;5073779;28;20638;-74
2022/04/10 06:53:22;;;;;;;3.40;1.33;;;;;;;2.91;100.00;100520.84;5073616;28;20228;-72
2022/04/10 06:55:47;;;;;;;1.03;0.93;;;;;;;3.01;100.00;100520.91;5073625;28;20167;-71
2022/04/10 06:58:13;;;;;;;8.93;1.73;;;;;;;3.10;100.00;100522.06;5073429;28;20331;-73
2022/04/10 07:00:39;;;;;;;10.67;1.90;;;;;;;3.19;100.00;100520.50;5073754;28;20177;-71
2022/04/10 07:03:04;;;;;;;5.70;1.27;;;;;;;3.34;100.00;100521.66;5073534;28;20177;-71
2022/04/10 07:05:29;;;;;;;2.43;2.23;;;;;;;3.39;100.00;100519.00;5073471;28;20538;-74
2022/04/10 07:07:55;;;;;;;3.73;1.20;;;;;;;3.44;99.96;100521.72;5073363;28;20166;-72
2022/04/10 07:10:21;;;;;;;1.53;1.13;;;;;;;3.51;98.91;100522.28;5073027;28;20296;-76
2022/04/10 07:12:46;;;;;;;4.80;1.27;;;;;;;3.46;97.69;100525.75;5073100;28;20162;-71
2022/04/10 07:15:12;;;;;;;3.13;0.63;;;;;;;3.53;97.19;100522.84;5073262;28;20178;-78
2022/04/10 07:17:37;;;;;;;3.63;1.20;;;;;;;3.66;96.70;100535.06;5073423;28;20185;-72
2022/04/10 07:20:03;;;;;;;11.70;1.67;;;;;;;3.73;95.90;100530.22;5073213;28;20685;-73
2022/04/10 07:25:12;;;;;;;1.43;0.90;;;;;;;3.93;96.74;100527.63;5072871;28;20166;-76
2022/04/10 07:27:38;;;;;;;20.50;3.13;;;;;;;3.89;96.20;100527.31;5072909;28;20531;-73
2022/04/10 07:30:04;;;;;;;3.53;0.83;;;;;;;3.73;95.14;100547.25;5072893;28;20269;-73
2022/04/10 07:32:29;;;;;;;4.90;0.93;;;;;;;3.73;94.73;100546.44;5072656;28;20167;-73
2022/04/10 07:34:55;;;;;;;2.60;1.37;;;;;;;3.87;95.41;100542.16;5072732;28;20166;-70
2022/04/10 07:37:20;;;;;;;1.80;1.40;;;;;;;3.99;95.94;100548.16;5072425;28;20629;-71
2022/04/10 07:39:45;;;;;;;8.17;1.87;;;;;;;4.18;96.14;100535.78;5072002;28;20185;-71
2022/04/10 07:42:11;;;;;;;0.53;0.30;;;;;;;4.33;94.26;100545.81;5073021;28;20194;-71
2022/04/10 07:44:36;;;;;;;5.87;1.00;;;;;;;4.38;93.77;100551.25;5073025;28;20685;-72
2022/04/10 07:49:45;;;;;;;5.07;1.80;;;;;;;4.30;92.13;100549.06;5072434;28;20220;-72
2022/04/10 07:52:10;;;;;;;1.03;1.03;;;;;;;4.29;92.38;100547.44;5072499;28;20178;-73
2022/04/10 07:54:36;;;;;;;1.20;0.90;;;;;;;4.37;92.69;100556.94;5072438;28;20167;-73
2022/04/10 07:57:03;;;;;;;0.83;0.83;;;;;;;4.40;91.62;100545.56;5072355;28;20170;-71
2022/04/10 07:59:28;;;;;;;9.63;0.80;;;;;;;4.46;92.17;100555.31;5072381;28;20167;-74
2022/04/10 08:01:53;;;;;;;4.03;2.30;;;;;;;4.43;91.19;100551.25;5071916;28;20189;-71
2022/04/10 08:04:19;;;;;;;0.67;0.60;;;;;;;4.45;91.08;100564.50;5070857;28;20207;-72
2022/04/10 08:06:44;;;;;;;5.30;1.27;;;;;;;4.42;90.26;100563.16;5072210;28;20174;-72
2022/04/10 08:09:10;;;;;;;1.87;1.07;;;;;;;4.40;88.48;100567.22;5070972;28;20285;-73
2022/04/10 08:11:35;;;;;;;1.70;0.97;;;;;;;4.44;88.71;100565.59;5071663;28;20518;-75
2022/04/10 08:14:00;;;;;;;1.83;0.70;;;;;;;4.54;87.25;100572.91;5071000;28;20178;-73
2022/04/10 08:16:26;;;;;;;0.73;0.70;;;;;;;4.73;87.85;100568.59;5070855;28;20257;-74
2022/04/10 08:18:52;;;;;;;1.57;0.57;;;;;;;4.86;88.17;100580.81;5070821;28;20526;-73
2022/04/10 08:21:18;;;;;;;1.77;0.90;;;;;;;4.95;87.56;100571.88;5070876;28;20224;-71
2022/04/10 08:23:43;;;;;;;1.23;1.17;;;;;;;4.98;86.62;100584.06;5070950;28;20182;-71
2022/04/10 08:26:09;;;;;;;3.77;1.30;;;;;;;4.96;85.51;100578.09;5070787;28;20557;-71
2022/04/10 08:28:34;;;;;;;0.80;0.80;;;;;;;4.98;85.55;100590.28;5070358;28;20202;-71
2022/04/10 08:31:00;;;;;;;8.40;1.17;;;;;;;4.94;85.93;100572.16;5070760;28;20171;-71
2022/04/10 08:33:25;;;;;;;1.60;1.13;;;;;;;5.04;86.03;100583.78;5070670;28;20185;-71
2022/04/10 08:35:50;;;;;;;2.33;1.20;;;;;;;5.11;84.94;100582.69;5070653;28;20170;-71
2022/04/10 08:38:16;;;;;;;0.83;0.83;;;;;;;5.06;83.94;100583.50;5070407;28;20178;-71
2022/04/10 08:40:43;;;;;;;7.37;0.90;;;;;;;4.98;85.66;100600.31;5070563;28;20186;-71
2022/04/10 08:43:10;;;;;;;0.90;0.87;;;;;;;4.99;87.37;100599.22;5069598;28;20175;-70
2022/04/10 08:45:38;;;;;;;6.67;0.97;;;;;;;4.92;86.72;100593.25;5069704;28;20185;-71
2022/04/10 08:48:04;;;;;;;0.93;0.50;;;;;;;4.89;86.41;100591.09;5070250;28;20231;-71
2022/04/10 08:50:30;;;;;;;20.80;2.40;;;;;;;4.90;86.32;100601.63;5069479;28;20182;-72
2022/04/10 08:52:58;;;;;;;0.77;0.77;;;;;;;5.02;86.55;100596.78;5070385;28;20174;-71
2022/04/10 08:55:25;;;;;;;1.43;0.93;;;;;;;5.09;84.85;100604.63;5070372;28;20179;-71
2022/04/10 08:57:50;;;;;;;1.37;0.63;;;;;;;4.96;84.71;100602.47;5069735;28;20525;-71
2022/04/10 09:00:18;;;;;;;9.10;1.40;;;;;;;4.81;84.93;100594.34;5070338;28;20174;-71
2022/04/10 09:02:48;;;;;;;2.40;1.40;;;;;;;4.77;86.27;100611.13;5070268;28;20174;-74
2022/04/10 09:05:18;;;;;;;0.50;0.50;;;;;;;4.69;85.78;100610.81;5070158;28;20174;-71
2022/04/10 09:08:09;;;;;;;0.27;0.27;;;;;;;4.64;85.09;100611.63;5069837;28;20567;-72
2022/04/10 09:10:55;;;;;;;3.93;0.77;;;;;;;4.68;85.94;100623.53;5070463;28;20155;-71
2022/04/10 09:13:26;;;;;;;1.43;0.53;;;;;;;4.83;86.49;100616.53;5070339;28;20163;-73
2022/04/10 09:15:51;;;;;;;2.53;1.83;;;;;;;5.14;84.59;100603.81;5070086;28;20261;-71
2022/04/10 09:18:17;;;;;;;0.73;0.73;;;;;;;5.28;81.58;100616.53;5069864;28;20689;-72
2022/04/10 09:20:42;;;;;;;0.10;0.10;;;;;;;5.57;81.88;100614.06;5070194;28;20179;-72
2022/04/10 09:23:09;;;;;;;1.23;0.80;;;;;;;5.85;81.53;100614.56;5070236;28;20173;-71
2022/04/10 09:25:42;;;;;;;2.00;1.77;;;;;;;6.00;80.15;100619.16;5070271;28;20201;-71
2022/04/10 09:28:08;;;;;;;0.83;0.60;;;;;;;6.15;79.66;100621.81;5070129;28;20200;-72
2022/04/10 09:30:35;;;;;;;4.63;1.43;;;;;;;5.87;76.18;100615.91;5070602;28;20572;-72
2022/04/10 09:33:01;;;;;;;0.50;0.40;;;;;;;5.70;76.22;100623.53;5070381;28;20633;-72
2022/04/10 09:35:40;;;;;;;1.03;0.93;;;;;;;5.70;76.82;100620.81;5065415;28;20185;-71
2022/04/10 09:38:06;;;;;;;1.40;0.70;;;;;;;5.65;78.13;100620.84;5070060;28;20181;-72
2022/04/10 09:40:33;;;;;;;0.63;0.50;;;;;;;5.56;77.84;100619.78;5070155;28;20190;-70
2022/04/10 09:43:07;;;;;;;0.83;0.60;;;;;;;5.52;76.67;100618.69;5069914;28;20174;-75
2022/04/10 09:45:39;;;;;;;0.87;0.33;;;;;;;5.58;75.17;100615.69;5069814;28;20695;-71
2022/04/10 09:48:22;;;;;;;2.10;0.97;;;;;;;5.68;74.82;100612.16;5069821;28;20623;-71
2022/04/10 09:50:59;;;;;;;2.37;0.43;;;;;;;5.96;75.76;100614.28;5069983;28;20171;-71
2022/04/10 09:53:26;;;;;;;0.47;0.47;;;;;;;5.96;72.17;100621.59;5069891;28;20193;-71
2022/04/10 09:55:57;;;;;;;0.20;0.20;;;;;;;5.94;73.37;100624.59;5069935;28;20261;-71
2022/04/10 09:58:23;;;;;;;0.10;0.10;;;;;;;6.18;74.21;100623.94;5069673;28;20267;-71
2022/04/10 10:00:52;;;;;;;1.47;0.87;;;;;;;6.50;72.61;100627.03;5069806;28;20428;-71
2022/04/10 10:03:20;;;;;;;0.50;0.50;;;;;;;6.40;70.67;100615.44;5073193;28;20206;-72
2022/04/10 10:05:46;;;;;;;1.23;0.43;;;;;;;6.24;71.48;100620.16;5073648;28;20181;-73
2022/04/10 10:08:12;;;;;;;0.33;0.20;;;;;;;6.07;72.27;100627.78;5073193;28;20166;-72
2022/04/10 10:10:38;;;;;;;0.77;0.10;;;;;;;5.86;72.52;100622.41;5073460;28;20637;-71
2022/04/10 10:13:08;;;;;;;3.30;0.70;;;;;;;5.85;74.50;100617.25;5073344;28;20255;-71
2022/04/10 10:15:38;;;;;;;0.30;0.30;;;;;;;5.93;75.20;100624.84;5073508;28;20434;-71
2022/04/10 10:18:08;;;;;;;0.70;0.50;;;;;;;6.00;74.07;100619.97;5073105;28;20175;-71
2022/04/10 10:20:34;;;;;;;1.90;0.20;;;;;;;5.94;71.78;100623.78;5073425;28;20185;-71
2022/04/10 10:23:07;;;;;;;1.80;0.20;;;;;;;5.89;71.57;100618.31;5073307;28;20642;-71
2022/04/10 10:25:52;;;;;;;1.10;0.60;;;;;;;5.74;73.06;100630.03;5073054;28;20174;-71
2022/04/10 10:28:39;;;;;;;0.40;0.27;;;;;;;5.42;75.57;100613.28;5072883;28;20198;-72
2022/04/10 10:31:25;;;;;;;0.20;0.20;;;;;;;5.63;77.95;100621.09;5072825;28;20182;-72
2022/04/10 10:34:02;;;;;;;0.50;0.10;;;;;;;6.06;75.72;100612.59;5073066;28;20166;-72
2022/04/10 10:36:28;;;;;;;0.37;0.37;;;;;;;6.30;71.56;100610.06;5072956;28;20213;-72
2022/04/10 10:38:55;;;;;;;0.40;0.23;;;;;;;6.57;71.62;100610.47;5072638;28;20202;-72
2022/04/10 10:41:20;;;;;;;2.83;0.57;;;;;;;6.72;70.09;100612.28;5072961;28;20626;-72
2022/04/10 10:43:46;;;;;;;0.40;0.40;;;;;;;6.99;69.59;100623.50;5072665;28;20233;-72
2022/04/10 10:46:34;;;;;;;1.57;0.60;;;;;;;6.96;67.58;100621.34;5072963;28;20260;-71
2022/04/10 10:49:20;;;;;;;0.57;0.23;;;;;;;6.90;67.69;100618.94;5072635;28;20251;-71
2022/04/10 10:51:50;;;;;;;0.33;0.20;;;;;;;6.70;67.02;100614.47;5072751;28;20185;-71
2022/04/10 10:54:25;;;;;;;0.83;0.70;;;;;;;6.88;67.15;100607.56;5072630;28;20276;-72
2022/04/10 10:56:51;;;;;;;1.63;0.70;;;;;;;6.94;68.21;100611.84;5072689;28;20188;-72
2022/04/10 10:59:31;;;;;;;0.30;0.30;;;;;;;7.06;67.86;100615.00;5072593;28;20174;-71
2022/04/10 11:01:59;;;;;;;1.20;0.33;;;;;;;6.90;66.65;100618.94;5072537;28;20171;-72
2022/04/10 11:04:28;;;;;;;0.20;0.20;;;;;;;6.74;65.83;100629.09;5072835;28;20185;-72
2022/04/10 11:06:53;;;;;;;1.57;0.30;;;;;;;6.59;67.21;100634.63;5072344;28;20179;-72
2022/04/10 11:09:30;;;;;;;0.50;0.23;;;;;;;6.39;67.17;100636.34;5072614;28;20292;-71
2022/04/10 11:11:59;;;;;;;0.50;0.40;;;;;;;6.33;68.65;100632.03;5072278;28;20182;-72
2022/04/10 11:14:40;;;;;;;1.53;0.70;;;;;;;6.41;70.99;100627.94;5071297;28;20175;-72
2022/04/10 11:17:20;;;;;;;2.37;0.50;;;;;;;6.39;69.75;100633.63;5072396;28;20190;-71
2022/04/10 11:19:48;;;;;;;0.93;0.40;;;;;;;6.40;68.70;100632.53;5072251;28;20545;-71
2022/04/10 11:22:19;;;;;;;0.30;0.30;;;;;;;6.46;69.53;100641.47;5071919;28;20534;-72
2022/04/10 11:24:45;;;;;;;0.30;0.30;;;;;;;6.49;69.84;100633.56;5072092;28;20183;-71
2022/04/10 11:27:12;;;;;;;1.20;0.67;;;;;;;6.42;69.24;100635.78;5071955;28;20258;-72
2022/04/10 11:29:47;;;;;;;1.50;1.00;;;;;;;6.37;70.27;100635.00;5071955;28;20562;-71
2022/04/10 11:32:16;;;;;;;2.80;0.70;;;;;;;6.21;71.66;100634.25;5071828;28;20170;-71
2022/04/10 11:34:42;;;;;;;0.73;0.73;;;;;;;6.02;73.28;100639.47;5071951;28;20202;-71